Time;durP1;ratioP1;P1;durP2;ratioP2;P2;SDS_P1;SDS_P2;PMS_P1;PMS_P2;Temp;Humidity;BMP_temperature;BMP_pressure;BME280_temperature;BME280_humidity;BME280_pressure;Samples;Min_cycle;Max_cycle;Signal;HPM_P1;HPM_P2
2021/12/19 00:00:22;;;;;;;45.10;25.75;;;4.60;99.90;;;;;;5062973;28;20206;-79
2021/12/19 00:03:05;;;;;;;47.25;23.63;;;4.80;99.90;;;;;;5060684;28;20210;-79
2021/12/19 00:08:32;;;;;;;46.60;24.08;;;5.00;99.90;;;;;;5058586;28;20193;-79
2021/12/19 00:11:00;;;;;;;42.80;24.30;;;4.80;99.90;;;;;;5058953;28;20194;-80
2021/12/19 00:13:27;;;;;;;44.70;23.92;;;4.90;99.90;;;;;;5058117;28;20209;-79
2021/12/19 00:15:55;;;;;;;44.33;22.33;;;5.20;99.90;;;;;;5058820;28;20226;-79
2021/12/19 00:18:22;;;;;;;40.45;22.45;;;5.30;99.90;;;;;;5058129;28;20225;-79
2021/12/19 00:20:51;;;;;;;45.50;23.75;;;5.50;99.90;;;;;;5062144;28;20228;-79
2021/12/19 00:23:18;;;;;;;42.15;22.02;;;5.40;99.90;;;;;;5060785;28;20278;-79
2021/12/19 00:25:45;;;;;;;45.40;25.80;;;5.30;99.90;;;;;;5058252;28;20742;-79
2021/12/19 00:28:12;;;;;;;47.08;24.90;;;5.00;99.90;;;;;;5057489;28;20214;-79
2021/12/19 00:30:38;;;;;;;41.05;24.13;;;4.80;99.90;;;;;;5058450;28;20245;-79
2021/12/19 00:33:05;;;;;;;47.90;24.08;;;4.70;99.90;;;;;;5058752;28;20288;-79
2021/12/19 00:35:32;;;;;;;40.72;20.48;;;4.90;99.90;;;;;;5057922;28;20236;-79
2021/12/19 00:38:01;;;;;;;44.22;23.92;;;5.30;99.90;;;;;;5058610;28;20553;-79
2021/12/19 00:40:27;;;;;;;47.80;24.80;;;5.10;99.90;;;;;;5057673;28;20676;-80
2021/12/19 00:43:03;;;;;;;45.95;24.42;;;5.30;99.90;;;;;;5058229;28;20217;-80
2021/12/19 00:45:32;;;;;;;45.38;24.20;;;4.90;99.90;;;;;;5058014;28;20690;-80
2021/12/19 00:48:00;;;;;;;44.75;23.45;;;5.00;99.90;;;;;;5058100;28;20525;-79
2021/12/19 00:50:27;;;;;;;46.22;23.73;;;5.30;99.90;;;;;;5056799;28;20580;-79
2021/12/19 00:52:54;;;;;;;42.05;23.10;;;5.30;99.90;;;;;;5062401;28;20278;-79
2021/12/19 00:55:27;;;;;;;45.75;24.23;;;5.00;99.90;;;;;;5072319;28;20260;-80
2021/12/19 00:57:54;;;;;;;48.20;24.65;;;4.90;99.90;;;;;;5058511;28;20220;-80
2021/12/19 01:00:25;;;;;;;44.38;23.45;;;5.00;99.90;;;;;;5060126;28;20274;-79
2021/12/19 01:02:54;;;;;;;46.42;24.98;;;5.00;99.90;;;;;;5060080;28;20254;-80
2021/12/19 01:05:21;;;;;;;46.95;24.70;;;5.40;99.90;;;;;;5057373;28;20710;-80
2021/12/19 01:07:48;;;;;;;47.35;23.80;;;5.30;99.90;;;;;;5057823;28;20210;-80
2021/12/19 01:10:15;;;;;;;44.25;26.23;;;5.10;99.90;;;;;;5057768;28;20300;-80
2021/12/19 01:12:43;;;;;;;48.53;26.67;;;5.10;99.90;;;;;;5057481;28;20206;-80
2021/12/19 01:15:13;;;;;;;47.55;26.10;;;4.80;99.90;;;;;;5057366;28;20226;-80
2021/12/19 01:17:40;;;;;;;49.95;28.05;;;4.90;99.90;;;;;;5058952;28;20194;-79
2021/12/19 01:20:12;;;;;;;44.38;25.48;;;4.80;99.90;;;;;;5057466;28;20202;-79
2021/12/19 01:22:39;;;;;;;56.03;30.25;;;5.00;99.90;;;;;;5056286;28;20670;-79
2021/12/19 01:25:06;;;;;;;52.38;28.33;;;4.90;99.90;;;;;;5055289;28;20757;-79
2021/12/19 01:27:33;;;;;;;47.45;25.10;;;4.80;99.90;;;;;;5057453;28;20617;-79
2021/12/19 01:30:01;;;;;;;53.28;28.00;;;4.90;99.90;;;;;;5057374;28;20206;-79
2021/12/19 01:32:28;;;;;;;45.90;24.27;;;5.00;99.90;;;;;;5056643;28;20214;-79
2021/12/19 01:34:55;;;;;;;47.25;25.75;;;5.00;99.90;;;;;;5057193;28;20280;-79
2021/12/19 01:37:22;;;;;;;48.35;25.95;;;5.00;99.90;;;;;;5062607;28;20245;-79
2021/12/19 01:39:49;;;;;;;52.72;26.60;;;5.10;99.90;;;;;;5056843;28;20340;-80
2021/12/19 01:42:19;;;;;;;44.63;24.83;;;5.20;99.90;;;;;;5056961;28;20220;-79
2021/12/19 01:44:46;;;;;;;45.83;23.88;;;5.00;99.90;;;;;;5056778;28;20274;-79
2021/12/19 01:47:15;;;;;;;46.97;25.95;;;5.00;99.90;;;;;;5056607;28;20206;-80
2021/12/19 01:49:42;;;;;;;46.35;26.35;;;5.00;99.90;;;;;;5057023;28;20211;-79
2021/12/19 01:52:09;;;;;;;53.33;25.85;;;4.80;99.90;;;;;;5057530;28;20667;-79
2021/12/19 01:54:36;;;;;;;45.38;24.85;;;4.80;99.90;;;;;;5057263;28;20269;-79
2021/12/19 01:57:03;;;;;;;60.65;30.48;;;4.80;99.90;;;;;;5055708;28;20294;-80
2021/12/19 01:59:30;;;;;;;59.88;30.50;;;4.80;99.90;;;;;;5056492;28;20214;-79
2021/12/19 02:01:57;;;;;;;52.78;25.88;;;4.70;99.90;;;;;;5056843;28;20406;-80
2021/12/19 02:04:30;;;;;;;54.40;27.35;;;5.00;99.90;;;;;;5056566;28;20281;-80
2021/12/19 02:06:57;;;;;;;52.45;26.05;;;4.80;99.90;;;;;;5056471;28;20206;-79
2021/12/19 02:09:25;;;;;;;44.67;23.38;;;4.70;99.90;;;;;;5057071;28;20206;-80
2021/12/19 02:11:53;;;;;;;48.85;24.15;;;4.90;99.90;;;;;;5056884;28;20242;-81
2021/12/19 02:14:21;;;;;;;39.88;22.13;;;5.20;99.90;;;;;;5056416;28;20293;-80
2021/12/19 02:16:48;;;;;;;45.20;24.15;;;5.30;99.90;;;;;;5062080;28;20229;-80
2021/12/19 02:19:15;;;;;;;43.53;22.02;;;5.20;99.90;;;;;;5062854;28;20224;-80
2021/12/19 02:21:44;;;;;;;44.28;21.25;;;5.00;99.90;;;;;;5069461;28;20269;-80
2021/12/19 02:24:11;;;;;;;39.40;18.85;;;5.10;99.90;;;;;;5064043;28;20292;-81
2021/12/19 02:26:40;;;;;;;31.67;18.40;;;5.00;99.90;;;;;;5058236;28;20289;-80
2021/12/19 02:29:07;;;;;;;44.10;22.20;;;5.10;99.90;;;;;;5071108;28;20216;-80
2021/12/19 02:31:34;;;;;;;38.90;19.08;;;4.90;99.90;;;;;;5060953;28;20686;-80
2021/12/19 02:34:05;;;;;;;36.97;18.10;;;4.70;99.90;;;;;;5056861;28;20297;-80
2021/12/19 02:36:50;;;;;;;35.85;19.15;;;4.60;99.90;;;;;;5058030;28;20589;-80
2021/12/19 02:39:53;;;;;;;36.33;19.00;;;4.80;99.90;;;;;;5061202;28;20273;-82
2021/12/19 02:48:11;;;;;;;30.38;15.35;;;5.10;99.90;;;;;;5069289;28;20208;-80
2021/12/19 02:50:43;;;;;;;28.75;16.15;;;5.10;99.90;;;;;;5057386;28;20206;-81
2021/12/19 02:53:10;;;;;;;28.90;15.15;;;5.20;99.90;;;;;;5072479;28;20195;-80
2021/12/19 02:55:38;;;;;;;29.73;15.70;;;5.30;99.90;;;;;;5073265;28;20293;-79
2021/12/19 02:58:05;;;;;;;27.77;13.88;;;5.20;99.90;;;;;;5057458;28;20570;-80
2021/12/19 03:00:32;;;;;;;29.60;15.02;;;5.30;99.90;;;;;;5056673;28;20299;-80
2021/12/19 03:02:59;;;;;;;26.48;14.52;;;5.10;99.90;;;;;;5057175;28;20284;-80
2021/12/19 03:05:26;;;;;;;27.80;13.95;;;4.90;99.90;;;;;;5057162;28;20320;-80
2021/12/19 03:07:56;;;;;;;25.48;14.50;;;5.00;99.90;;;;;;5057235;28;20212;-80
2021/12/19 03:13:26;;;;;;;30.63;15.60;;;5.30;99.90;;;;;;5003382;28;20248;-81
2021/12/19 03:18:39;;;;;;;26.67;12.52;;;5.40;99.90;;;;;;5059882;28;20264;-80
2021/12/19 03:21:10;;;;;;;27.30;14.05;;;5.40;99.90;;;;;;5059837;28;20290;-80
2021/12/19 03:23:36;;;;;;;29.50;14.45;;;5.40;99.90;;;;;;5060004;28;20187;-80
2021/12/19 03:26:04;;;;;;;26.80;13.35;;;5.10;99.90;;;;;;5059446;28;20253;-80
2021/12/19 03:28:32;;;;;;;27.33;14.05;;;4.70;99.90;;;;;;5064389;28;20214;-80
2021/12/19 03:30:59;;;;;;;29.25;13.50;;;4.80;99.90;;;;;;5069395;28;20217;-80
2021/12/19 03:33:26;;;;;;;25.50;14.30;;;4.80;99.90;;;;;;5067447;28;20277;-80
2021/12/19 03:35:53;;;;;;;25.23;13.65;;;4.70;99.90;;;;;;5065164;28;20611;-82
2021/12/19 03:38:20;;;;;;;26.85;13.93;;;4.70;99.90;;;;;;5071404;28;20228;-80
2021/12/19 03:40:55;;;;;;;21.20;12.25;;;5.00;99.90;;;;;;5113505;22;20218;-87
2021/12/19 03:43:24;;;;;;;28.73;13.98;;;5.00;99.90;;;;;;5080353;28;20205;-86
2021/12/19 03:45:52;;;;;;;21.80;12.90;;;4.70;99.90;;;;;;5075747;28;20210;-84
2021/12/19 03:48:20;;;;;;;25.17;12.65;;;4.80;99.90;;;;;;5080478;28;20262;-86
2021/12/19 03:50:49;;;;;;;24.67;11.70;;;4.50;99.90;;;;;;5070497;28;20230;-87
2021/12/19 03:53:18;;;;;;;21.92;12.27;;;4.20;99.90;;;;;;5064870;28;20274;-87
2021/12/19 03:55:45;;;;;;;21.02;11.43;;;4.70;99.90;;;;;;5071650;28;20285;-87
2021/12/19 03:58:13;;;;;;;22.17;12.68;;;4.70;99.90;;;;;;5073965;28;20282;-87
2021/12/19 04:00:42;;;;;;;21.38;11.77;;;4.70;99.90;;;;;;5065204;28;20227;-86
2021/12/19 04:03:17;;;;;;;19.42;11.38;;;4.60;99.90;;;;;;5064462;28;20708;-87
2021/12/19 04:05:44;;;;;;;24.23;12.32;;;4.10;99.90;;;;;;5063592;28;20209;-87
2021/12/19 04:08:11;;;;;;;24.15;10.75;;;4.50;99.90;;;;;;5064357;28;20214;-87
2021/12/19 04:10:38;;;;;;;22.30;11.02;;;4.60;99.90;;;;;;5063956;28;20602;-87
2021/12/19 04:13:05;;;;;;;22.27;11.93;;;4.50;99.90;;;;;;5064412;28;20210;-87
2021/12/19 04:15:31;;;;;;;24.02;12.10;;;4.80;99.90;;;;;;5065004;28;20249;-87
2021/12/19 04:17:59;;;;;;;21.65;11.63;;;4.80;99.90;;;;;;5074881;28;20222;-85
2021/12/19 04:20:27;;;;;;;20.27;11.60;;;4.60;99.90;;;;;;5067092;28;20627;-87
2021/12/19 04:22:54;;;;;;;25.10;12.48;;;4.10;99.90;;;;;;5063801;28;20229;-87
2021/12/19 04:25:21;;;;;;;20.73;11.27;;;4.50;99.90;;;;;;5062962;28;20232;-86
2021/12/19 04:27:49;;;;;;;19.90;11.43;;;4.50;99.90;;;;;;5062125;28;20581;-87
2021/12/19 04:30:18;;;;;;;25.15;11.82;;;4.40;99.90;;;;;;5072080;28;20210;-86
2021/12/19 04:32:56;;;;;;;21.25;11.50;;;4.40;99.90;;;;;;5071972;28;20217;-87
2021/12/19 04:35:23;;;;;;;18.35;11.25;;;4.40;99.90;;;;;;5072583;28;20190;-87
2021/12/19 04:38:29;;;;;;;16.88;9.60;;;4.50;99.90;;;;;;5065918;28;20234;-87
2021/12/19 04:41:08;;;;;;;17.25;9.82;;;4.80;99.90;;;;;;5063330;28;20233;-88
2021/12/19 04:54:47;;;;;;;26.27;13.68;;;4.60;99.90;;;;;;5028555;28;20209;-86
2021/12/19 04:57:28;;;;;;;22.83;11.15;;;4.60;99.90;;;;;;5060259;28;20214;-86
2021/12/19 04:59:58;;;;;;;24.60;11.10;;;4.70;99.90;;;;;;5062173;28;20240;-87
2021/12/19 05:02:46;;;;;;;19.95;10.70;;;4.60;99.90;;;;;;5065498;28;20226;-87
2021/12/19 05:16:12;;;;;;;19.58;10.40;;;4.60;99.90;;;;;;5075419;28;20352;-87
2021/12/19 05:18:41;;;;;;;18.90;10.00;;;4.40;99.90;;;;;;5071194;28;20220;-88
2021/12/19 05:21:15;;;;;;;21.50;10.98;;;4.50;99.90;;;;;;5065091;28;20720;-87
2021/12/19 05:24:04;;;;;;;19.40;10.80;;;4.50;99.90;;;;;;5063661;28;20197;-87
2021/12/19 05:26:32;;;;;;;19.92;9.35;;;4.50;99.90;;;;;;5062992;28;20198;-87
2021/12/19 05:28:59;;;;;;;21.85;10.30;;;4.60;99.90;;;;;;5061669;28;20304;-87
2021/12/19 05:31:26;;;;;;;18.25;8.98;;;4.60;99.90;;;;;;5061869;28;20229;-87
2021/12/19 05:33:52;;;;;;;20.08;11.00;;;4.60;99.90;;;;;;5061932;28;20260;-88
2021/12/19 05:47:21;;;;;;;22.85;11.30;;;5.00;99.90;;;;;;5068065;28;20212;-88
2021/12/19 05:49:48;;;;;;;20.65;11.63;;;4.80;99.90;;;;;;5074696;28;20206;-85
2021/12/19 05:52:16;;;;;;;23.20;12.10;;;4.70;99.90;;;;;;5077762;28;20228;-86
2021/12/19 05:54:43;;;;;;;23.40;12.60;;;4.70;99.90;;;;;;5070048;28;20657;-86
2021/12/19 05:57:11;;;;;;;21.98;12.63;;;4.60;99.90;;;;;;5062723;28;20276;-87
2021/12/19 05:59:38;;;;;;;18.50;10.35;;;4.70;99.90;;;;;;5063678;28;20224;-87
2021/12/19 06:02:05;;;;;;;25.15;11.88;;;4.70;99.90;;;;;;5065862;28;20320;-86
2021/12/19 06:04:32;;;;;;;21.40;11.45;;;4.80;99.90;;;;;;5065270;28;20242;-86
2021/12/19 06:06:59;;;;;;;24.05;11.73;;;4.80;99.90;;;;;;5068467;28;20265;-86
2021/12/19 06:09:26;;;;;;;19.00;10.93;;;4.40;99.90;;;;;;5068195;28;20245;-88
2021/12/19 06:11:53;;;;;;;20.20;10.35;;;4.60;99.90;;;;;;5062124;28;20261;-87
2021/12/19 06:14:22;;;;;;;22.98;12.07;;;4.60;99.90;;;;;;5067022;28;20213;-87
2021/12/19 06:16:49;;;;;;;19.88;10.95;;;4.10;99.90;;;;;;5061545;28;20634;-88
2021/12/19 06:19:16;;;;;;;20.38;11.10;;;4.70;99.90;;;;;;5061236;28;20308;-88
2021/12/19 06:21:43;;;;;;;19.08;10.00;;;4.30;99.90;;;;;;5061397;28;20272;-87
2021/12/19 06:24:10;;;;;;;17.25;9.73;;;4.60;99.90;;;;;;5061237;28;20216;-87
2021/12/19 06:26:37;;;;;;;16.88;9.32;;;4.60;99.90;;;;;;5060739;28;20210;-86
2021/12/19 06:29:04;;;;;;;16.17;8.73;;;3.80;99.90;;;;;;5060866;28;20289;-87
2021/12/19 06:31:33;;;;;;;18.50;10.52;;;4.40;99.90;;;;;;5061166;28;20232;-88
2021/12/19 06:34:00;;;;;;;20.45;10.00;;;4.30;99.90;;;;;;5066824;28;20274;-85
2021/12/19 06:36:27;;;;;;;16.90;9.35;;;4.40;99.90;;;;;;5078087;28;20246;-85
2021/12/19 06:38:54;;;;;;;17.60;9.38;;;4.30;99.90;;;;;;5075519;28;20210;-88
2021/12/19 06:41:21;;;;;;;17.23;9.20;;;4.40;99.90;;;;;;5076250;28;20233;-84
2021/12/19 06:43:48;;;;;;;18.70;10.48;;;4.20;99.90;;;;;;5077738;28;20261;-87
2021/12/19 06:46:15;;;;;;;18.70;8.20;;;4.10;99.90;;;;;;5075649;28;20191;-86
2021/12/19 06:48:43;;;;;;;18.50;8.57;;;4.10;99.90;;;;;;5070577;28;20233;-87
2021/12/19 06:51:10;;;;;;;17.73;9.07;;;4.30;99.90;;;;;;5066994;28;20226;-87
2021/12/19 06:53:37;;;;;;;19.00;9.57;;;4.20;99.90;;;;;;5067070;28;20213;-86
2021/12/19 06:56:04;;;;;;;15.27;8.13;;;4.20;99.90;;;;;;5065657;28;20245;-87
2021/12/19 06:58:31;;;;;;;14.27;7.50;;;4.20;99.90;;;;;;5061328;28;20646;-86
2021/12/19 07:00:58;;;;;;;14.68;7.60;;;4.20;99.90;;;;;;5060945;28;20309;-87
2021/12/19 07:03:25;;;;;;;14.73;7.65;;;4.00;99.90;;;;;;5060780;28;20212;-86
2021/12/19 07:05:53;;;;;;;15.20;7.80;;;4.20;99.90;;;;;;5059353;28;20290;-85
2021/12/19 07:08:21;;;;;;;16.05;7.97;;;4.20;99.90;;;;;;5062842;28;20278;-85
2021/12/19 07:10:48;;;;;;;13.73;7.57;;;4.10;99.90;;;;;;5068347;28;20230;-87
2021/12/19 07:13:19;;;;;;;14.20;7.60;;;4.20;99.90;;;;;;5060700;28;20202;-87
2021/12/19 07:15:46;;;;;;;15.05;8.15;;;4.00;99.90;;;;;;5060754;28;20213;-87
2021/12/19 07:18:13;;;;;;;14.93;8.40;;;4.30;99.90;;;;;;5059596;28;20324;-86
2021/12/19 07:20:42;;;;;;;13.13;7.03;;;4.20;99.90;;;;;;5063332;28;20246;-86
2021/12/19 07:23:11;;;;;;;13.80;7.25;;;4.20;99.90;;;;;;5060527;28;20259;-86
2021/12/19 07:25:39;;;;;;;11.93;6.75;;;4.10;99.90;;;;;;5061896;28;20215;-87
2021/12/19 07:28:06;;;;;;;13.23;6.40;;;4.20;99.90;;;;;;5072182;28;20204;-85
2021/12/19 07:30:35;;;;;;;14.15;5.45;;;4.10;99.90;;;;;;5070955;28;20205;-88
2021/12/19 07:33:02;;;;;;;10.25;5.57;;;4.10;99.90;;;;;;5067197;28;20210;-86
2021/12/19 07:35:31;;;;;;;11.75;6.13;;;4.10;99.90;;;;;;5069562;28;20229;-87
2021/12/19 07:37:58;;;;;;;11.40;6.18;;;4.10;99.90;;;;;;5066259;28;20218;-87
2021/12/19 07:40:28;;;;;;;14.77;6.40;;;4.10;99.90;;;;;;5068669;28;20215;-86
2021/12/19 07:42:58;;;;;;;11.63;5.72;;;4.10;99.90;;;;;;5072276;28;20269;-85
2021/12/19 07:45:25;;;;;;;12.27;6.57;;;4.00;99.90;;;;;;5071019;28;20198;-87
2021/12/19 07:47:52;;;;;;;13.15;4.88;;;4.10;99.90;;;;;;5065895;28;20667;-87
2021/12/19 07:50:20;;;;;;;12.18;6.72;;;4.10;99.90;;;;;;5062168;28;20210;-87
2021/12/19 07:52:47;;;;;;;11.88;5.97;;;4.10;99.90;;;;;;5070522;28;20202;-86
2021/12/19 07:55:13;;;;;;;13.40;5.85;;;4.10;99.90;;;;;;5065120;28;20304;-87
2021/12/19 07:57:42;;;;;;;11.90;6.43;;;4.20;99.90;;;;;;5064999;28;20245;-87
2021/12/19 08:00:11;;;;;;;11.73;5.85;;;4.30;99.90;;;;;;5065006;28;20217;-87
2021/12/19 08:02:38;;;;;;;12.15;6.18;;;4.40;99.90;;;;;;5064393;28;20310;-88
2021/12/19 08:05:06;;;;;;;13.13;7.22;;;4.40;99.90;;;;;;5065191;28;20216;-85
2021/12/19 08:07:33;;;;;;;11.05;6.30;;;4.40;99.90;;;;;;5066285;28;20822;-89
2021/12/19 08:10:12;;;;;;;12.93;5.80;;;4.20;99.90;;;;;;5073770;28;20198;-87
2021/12/19 08:12:40;;;;;;;10.27;5.57;;;4.40;99.90;;;;;;5066041;28;20226;-87
2021/12/19 08:15:08;;;;;;;10.15;5.78;;;4.40;99.90;;;;;;5074652;28;20277;-79
2021/12/19 08:17:36;;;;;;;10.75;4.80;;;4.30;99.90;;;;;;5071404;28;20222;-80
2021/12/19 08:20:05;;;;;;;10.75;5.30;;;4.40;99.90;;;;;;5067672;28;20206;-79
2021/12/19 08:22:33;;;;;;;9.27;5.45;;;4.30;99.90;;;;;;5071143;28;20309;-79
2021/12/19 08:25:00;;;;;;;9.15;4.85;;;4.20;99.90;;;;;;5071181;28;20244;-80
2021/12/19 08:27:27;;;;;;;11.73;5.63;;;4.30;99.90;;;;;;5060116;28;20230;-79
2021/12/19 08:29:56;;;;;;;12.25;6.20;;;4.50;99.90;;;;;;5059913;28;20678;-80
2021/12/19 08:32:22;;;;;;;8.40;4.38;;;4.40;99.90;;;;;;5058643;28;20257;-80
2021/12/19 08:34:49;;;;;;;9.07;4.55;;;4.30;99.90;;;;;;5058898;28;20210;-78
2021/12/19 08:37:16;;;;;;;12.00;5.53;;;4.60;99.90;;;;;;5063397;28;20226;-85
2021/12/19 08:39:43;;;;;;;8.05;4.15;;;4.70;99.90;;;;;;5067032;28;20206;-85
2021/12/19 08:42:11;;;;;;;9.13;4.82;;;4.30;99.90;;;;;;5066481;28;20320;-86
2021/12/19 08:44:39;;;;;;;9.93;5.10;;;4.30;99.90;;;;;;5065950;28;20678;-84
2021/12/19 08:47:08;;;;;;;12.40;5.82;;;4.50;99.90;;;;;;5074188;28;20208;-87
2021/12/19 08:49:35;;;;;;;8.70;5.18;;;4.50;99.90;;;;;;5070254;28;20201;-78
2021/12/19 08:52:02;;;;;;;9.30;5.35;;;4.60;99.90;;;;;;5071101;28;20222;-82
2021/12/19 08:54:29;;;;;;;11.35;4.90;;;4.80;99.90;;;;;;5067430;28;20559;-79
2021/12/19 08:56:57;;;;;;;10.55;5.15;;;4.80;99.90;;;;;;5060265;28;20237;-83
2021/12/19 08:59:25;;;;;;;9.40;4.90;;;4.70;99.90;;;;;;5062908;28;20293;-82
2021/12/19 09:01:53;;;;;;;10.13;5.10;;;4.60;99.90;;;;;;5066789;28;20214;-84
2021/12/19 09:04:21;;;;;;;9.10;5.10;;;4.60;99.90;;;;;;5076939;28;20205;-86
2021/12/19 09:06:48;;;;;;;9.02;4.68;;;4.70;99.90;;;;;;5078379;28;20179;-85
2021/12/19 09:09:14;;;;;;;8.60;4.80;;;4.60;99.90;;;;;;5062976;28;20677;-78
2021/12/19 09:11:41;;;;;;;8.95;4.15;;;4.70;99.90;;;;;;5059467;28;20317;-87
2021/12/19 09:14:08;;;;;;;8.75;4.53;;;4.70;99.90;;;;;;5064143;28;20206;-88
2021/12/19 09:16:35;;;;;;;8.02;4.10;;;4.50;99.90;;;;;;5074609;28;20225;-85
2021/12/19 09:19:03;;;;;;;7.90;4.15;;;4.50;99.90;;;;;;5068191;28;20213;-88
2021/12/19 09:21:31;;;;;;;8.15;3.80;;;4.60;99.90;;;;;;5067025;28;20285;-86
2021/12/19 09:23:58;;;;;;;8.25;4.10;;;4.70;99.90;;;;;;5065145;28;20200;-87
2021/12/19 09:26:25;;;;;;;6.32;3.55;;;4.90;99.90;;;;;;5063440;28;20227;-86
2021/12/19 09:28:52;;;;;;;8.30;4.00;;;4.60;99.90;;;;;;5072803;28;20289;-82
2021/12/19 09:31:19;;;;;;;6.30;2.70;;;4.70;99.90;;;;;;5078463;28;20232;-83
2021/12/19 09:33:45;;;;;;;7.75;4.05;;;4.60;99.90;;;;;;5078318;28;20205;-81
2021/12/19 09:36:12;;;;;;;7.28;4.07;;;4.40;99.90;;;;;;5070514;28;20234;-86
2021/12/19 09:38:41;;;;;;;8.25;4.00;;;4.50;99.90;;;;;;5076363;28;20272;-80
2021/12/19 09:41:14;;;;;;;6.30;3.47;;;4.60;99.90;;;;;;5076152;28;20277;-80
2021/12/19 09:43:47;;;;;;;10.30;3.70;;;4.80;99.90;;;;;;5075690;28;20190;-78
2021/12/19 09:46:16;;;;;;;7.38;4.13;;;4.70;99.90;;;;;;5089541;22;20221;-80
2021/12/19 09:48:45;;;;;;;6.97;3.20;;;4.80;99.90;;;;;;5068936;28;20718;-83
2021/12/19 09:51:13;;;;;;;6.60;3.75;;;4.80;99.90;;;;;;5060999;28;20202;-81
2021/12/19 09:53:43;;;;;;;7.25;3.35;;;4.80;99.90;;;;;;5058224;28;20244;-78
2021/12/19 09:56:10;;;;;;;5.40;2.85;;;4.60;99.90;;;;;;5057501;28;20236;-81
2021/12/19 09:58:37;;;;;;;6.78;3.97;;;4.80;99.90;;;;;;5057402;28;20226;-81
2021/12/19 10:01:07;;;;;;;5.40;2.53;;;4.90;99.90;;;;;;5068506;28;20206;-82
2021/12/19 10:03:35;;;;;;;6.10;3.20;;;4.90;99.90;;;;;;5068950;28;20212;-78
2021/12/19 10:06:16;;;;;;;13.25;2.58;;;5.00;99.90;;;;;;5054319;28;20253;-78
2021/12/19 10:08:45;;;;;;;4.95;2.70;;;4.80;99.90;;;;;;5056371;28;20206;-83
2021/12/19 10:11:33;;;;;;;7.70;3.28;;;5.10;99.90;;;;;;5056930;28;20347;-79
2021/12/19 10:14:01;;;;;;;6.05;3.03;;;5.00;99.90;;;;;;5057296;28;20310;-78
2021/12/19 10:16:30;;;;;;;6.90;3.03;;;5.10;99.90;;;;;;5056172;28;20236;-81
2021/12/19 10:19:00;;;;;;;6.72;2.80;;;5.00;99.90;;;;;;5073629;28;20315;-79
2021/12/19 10:21:28;;;;;;;6.88;3.50;;;4.90;99.90;;;;;;5074406;28;20217;-81
2021/12/19 10:24:00;;;;;;;7.55;3.72;;;4.90;99.90;;;;;;5057725;28;20252;-81
2021/12/19 10:26:41;;;;;;;5.75;3.53;;;5.00;99.90;;;;;;5057219;28;20226;-80
2021/12/19 10:29:08;;;;;;;6.70;3.08;;;4.90;99.90;;;;;;5056834;28;20253;-82
2021/12/19 10:31:37;;;;;;;5.97;3.33;;;5.10;99.90;;;;;;5056828;28;20186;-81
2021/12/19 10:34:20;;;;;;;6.85;3.22;;;5.40;99.90;;;;;;5056959;28;20206;-80
2021/12/19 10:36:47;;;;;;;7.00;3.10;;;5.20;99.90;;;;;;5056829;28;20236;-81
2021/12/19 10:39:19;;;;;;;4.93;2.33;;;5.20;99.90;;;;;;5058569;28;20688;-84
2021/12/19 10:41:58;;;;;;;4.90;2.50;;;5.00;99.90;;;;;;5061473;28;20273;-83
2021/12/19 10:47:25;;;;;;;5.28;2.38;;;5.10;99.90;;;;;;5062679;28;20623;-82
2021/12/19 10:49:53;;;;;;;4.82;2.40;;;5.00;99.90;;;;;;5058788;28;20209;-82
2021/12/19 10:52:36;;;;;;;6.15;2.97;;;5.20;99.90;;;;;;5059014;28;20256;-81
2021/12/19 10:55:08;;;;;;;4.82;2.60;;;5.10;99.90;;;;;;5065719;28;20289;-79
2021/12/19 10:57:37;;;;;;;6.38;3.35;;;5.30;99.90;;;;;;5059381;28;20320;-78
2021/12/19 11:00:07;;;;;;;5.22;2.72;;;5.10;99.90;;;;;;5054238;28;20293;-77
2021/12/19 11:02:37;;;;;;;6.50;2.90;;;5.30;99.90;;;;;;5055830;28;20202;-80
2021/12/19 11:05:05;;;;;;;5.90;2.95;;;5.10;99.90;;;;;;5055937;28;20632;-81
2021/12/19 11:07:32;;;;;;;5.82;3.33;;;5.20;99.90;;;;;;5054824;28;20317;-78
2021/12/19 11:09:59;;;;;;;5.90;2.60;;;5.10;99.90;;;;;;5052074;28;20233;-78
2021/12/19 11:12:27;;;;;;;5.38;3.13;;;5.10;99.90;;;;;;5054812;28;20630;-78
2021/12/19 11:14:55;;;;;;;8.35;3.95;;;5.10;99.90;;;;;;5055765;28;20205;-77
2021/12/19 11:17:26;;;;;;;6.57;2.92;;;5.20;99.90;;;;;;5054491;28;20314;-80
2021/12/19 11:19:55;;;;;;;6.40;3.30;;;5.40;99.90;;;;;;5058428;28;20210;-82
2021/12/19 11:22:24;;;;;;;6.63;3.00;;;5.30;99.90;;;;;;5059216;28;20266;-80
2021/12/19 11:24:52;;;;;;;5.10;2.75;;;5.50;99.90;;;;;;5063928;28;20265;-79
2021/12/19 11:27:19;;;;;;;5.10;2.55;;;5.50;99.90;;;;;;5067104;28;20317;-79
2021/12/19 11:29:50;;;;;;;5.50;2.90;;;5.60;99.90;;;;;;5064843;28;20206;-78
2021/12/19 11:32:21;;;;;;;7.00;3.50;;;5.70;99.90;;;;;;5061439;28;20271;-77
2021/12/19 11:35:01;;;;;;;7.05;2.60;;;5.40;99.90;;;;;;5057231;28;20507;-78
2021/12/19 11:37:33;;;;;;;5.85;2.80;;;5.30;99.90;;;;;;5056514;28;20237;-78
2021/12/19 11:40:00;;;;;;;5.30;2.70;;;5.10;99.90;;;;;;5057401;28;20201;-77
2021/12/19 11:42:32;;;;;;;5.63;3.20;;;5.50;99.90;;;;;;5059712;28;20311;-79
2021/12/19 11:45:25;;;;;;;5.55;3.00;;;5.10;99.90;;;;;;5063042;28;20264;-83
2021/12/19 11:47:57;;;;;;;7.22;3.50;;;5.00;99.90;;;;;;5074900;28;20311;-83
2021/12/19 11:50:27;;;;;;;5.75;3.10;;;4.90;99.90;;;;;;5073130;28;20190;-84
2021/12/19 11:52:57;;;;;;;6.60;3.53;;;4.90;99.90;;;;;;5073185;28;20236;-83
2021/12/19 11:55:31;;;;;;;7.00;3.13;;;4.90;99.90;;;;;;5068435;28;20293;-79
2021/12/19 11:58:20;;;;;;;8.25;3.40;;;5.20;99.90;;;;;;5067311;28;20217;-80
2021/12/19 12:00:54;;;;;;;7.45;3.65;;;5.40;99.90;;;;;;5063362;28;20191;-80
2021/12/19 12:03:27;;;;;;;6.30;3.70;;;5.30;99.90;;;;;;5060890;28;20262;-79
2021/12/19 12:06:32;;;;;;;6.00;3.35;;;5.20;99.90;;;;;;5061411;28;20226;-79
2021/12/19 12:09:38;;;;;;;4.95;2.95;;;5.30;99.90;;;;;;5060058;28;20292;-79
2021/12/19 12:12:12;;;;;;;5.35;3.22;;;5.00;99.90;;;;;;5059832;28;20634;-79
2021/12/19 12:14:42;;;;;;;5.50;3.67;;;5.10;99.90;;;;;;5061484;28;20199;-81
2021/12/19 12:17:17;;;;;;;7.85;3.40;;;5.10;99.90;;;;;;5060649;28;20242;-79
2021/12/19 12:19:46;;;;;;;6.53;3.75;;;5.00;99.90;;;;;;5062227;28;20273;-79
2021/12/19 12:22:42;;;;;;;6.85;3.90;;;5.10;99.90;;;;;;5062608;28;20619;-79
2021/12/19 12:25:14;;;;;;;8.30;4.40;;;5.00;99.90;;;;;;5057715;28;20282;-79
2021/12/19 12:27:43;;;;;;;8.27;3.85;;;5.30;99.90;;;;;;5057013;28;20255;-77
2021/12/19 12:30:12;;;;;;;6.95;3.70;;;5.40;99.90;;;;;;5056913;28;20212;-76
2021/12/19 12:32:42;;;;;;;6.05;3.70;;;5.40;99.90;;;;;;5056793;28;20297;-79
2021/12/19 12:35:11;;;;;;;7.55;4.10;;;5.50;99.90;;;;;;5061476;28;20202;-80
2021/12/19 12:37:40;;;;;;;8.48;4.85;;;5.50;99.90;;;;;;5062604;28;20700;-81
2021/12/19 12:40:25;;;;;;;8.25;5.13;;;5.60;99.90;;;;;;5068712;28;20198;-85
2021/12/19 12:42:58;;;;;;;6.13;3.67;;;5.30;99.90;;;;;;5064927;28;20228;-83
2021/12/19 12:45:24;;;;;;;5.80;3.05;;;5.30;99.90;;;;;;5071741;28;20600;-80
2021/12/19 12:47:53;;;;;;;7.00;3.80;;;5.10;99.90;;;;;;5073292;28;20213;-82
2021/12/19 12:50:20;;;;;;;6.18;4.05;;;4.90;99.90;;;;;;5060037;28;20206;-80
2021/12/19 12:52:47;;;;;;;7.80;3.63;;;5.00;99.90;;;;;;5059877;28;20343;-82
2021/12/19 12:55:15;;;;;;;8.60;4.88;;;5.00;99.90;;;;;;5059081;28;20213;-81
2021/12/19 12:57:44;;;;;;;9.85;4.95;;;5.10;99.90;;;;;;5060195;28;20230;-79
2021/12/19 13:00:19;;;;;;;8.75;4.40;;;5.10;99.90;;;;;;5059094;28;20307;-79
2021/12/19 13:02:55;;;;;;;6.70;3.55;;;5.30;99.90;;;;;;5059603;28;20557;-88
2021/12/19 13:05:23;;;;;;;8.98;4.13;;;5.10;99.90;;;;;;5062787;28;20194;-81
2021/12/19 13:07:50;;;;;;;7.30;3.38;;;5.50;99.90;;;;;;5069399;28;20225;-84
2021/12/19 13:10:17;;;;;;;6.47;3.80;;;5.50;99.90;;;;;;5065301;28;20206;-85
2021/12/19 13:12:45;;;;;;;6.38;3.55;;;5.50;99.90;;;;;;5059487;28;20587;-84
2021/12/19 13:15:14;;;;;;;8.82;5.05;;;5.50;99.90;;;;;;5063249;28;20284;-80
2021/12/19 13:17:42;;;;;;;6.95;4.00;;;5.30;99.90;;;;;;5066288;28;20260;-82
2021/12/19 13:20:11;;;;;;;8.43;4.35;;;5.30;99.90;;;;;;5057141;28;20206;-83
2021/12/19 13:22:43;;;;;;;8.95;4.72;;;5.30;99.90;;;;;;5058408;28;20300;-83
2021/12/19 13:25:12;;;;;;;8.20;4.65;;;5.30;99.90;;;;;;5057110;28;20201;-81
2021/12/19 13:27:41;;;;;;;9.40;5.43;;;5.20;99.90;;;;;;5058039;28;20234;-80
2021/12/19 13:30:18;;;;;;;7.20;4.43;;;5.20;99.90;;;;;;5058535;28;20665;-84
2021/12/19 13:32:47;;;;;;;9.18;5.20;;;5.00;99.90;;;;;;5059601;28;20194;-86
2021/12/19 13:35:19;;;;;;;8.52;4.90;;;5.10;99.90;;;;;;5059247;28;20214;-83
2021/12/19 13:37:53;;;;;;;6.82;4.30;;;5.20;99.90;;;;;;5061099;28;20281;-83
2021/12/19 13:40:21;;;;;;;8.70;4.38;;;5.00;99.90;;;;;;5060340;28;20253;-80
2021/12/19 13:42:51;;;;;;;9.00;4.50;;;5.00;99.90;;;;;;5067233;28;20269;-79
2021/12/19 13:45:33;;;;;;;7.47;4.50;;;5.00;99.90;;;;;;5062606;28;20730;-77
2021/12/19 13:48:03;;;;;;;8.00;4.55;;;5.30;99.90;;;;;;5070457;28;20190;-80